Sosua, Dominican Republic
Current Conditions -  °F | °C
As of 7:00 PM on Sunday 21 Dec 2014 (Local Time) from MDPP Reporting Station
Scattered Clouds Scattered Clouds  
Wind Chill: 77°   Ceiling: Unl
Heat Index: 78°   Visibility: 6mi
Dew Point: 73°   Wind: 6mph
Humidity: 89%   Direction: 120°ESE
Pressure: 30"   Gusts: NA
Location:  19.75°N, 70.52°W
Report Text: MDPP 212300Z 12005KT 9999 SCT018 25/23 Q1016 NOSIG
Loading
Personal Weather Stations






























Interactive Weather Map New forecast layout! Learn more

10-Day Weather Forecast

Advertisements
Track Severe Weather on mobile